メインページ
METAR-TAF:

METAR-TAF

空港 :

プンタアレナス, チリ

緯度: 53-00S, 経度: 070-51W, 海抜: 37m

現時点の気象観測

当レポートは50分前の11:00(UTC)に作成
西/南西の風 8kt
気温 3°C
湿度 87%
気圧 1009 hPa
視程10km以上
高度4000ftの雲はほとんどない

METAR: SCCI 221100Z 24008KT 9999 FEW040 03/01 Q1009 NOSIG

時間: 07:50 (11:50 UTC)

予報

当レポートは39分前の11:11(UTC)に作成
予報は22日の 12時(UTC)から 23日の 12時(UTC)まで有効
西/南西の風 12kt
視程10km以上
高度4000ftの雲はほとんどない
22日の 12時(UTC)から 22日の 17時(UTC)まで一時的に
西の風 12kt
22日の 15時(UTC)から 22日の 17時(UTC)まで徐々に
高度3500ftの雲は散在している
確率 40% :
22日の 15時(UTC)から 22日の 18時(UTC)まで一時的に
視程: 9000m
高度3000ftの雲はほとんどない
高度3500ftの雲は散在している
弱いにわか雨

TAF: SCCI 221111Z 2212/2312 24012KT 9999 FEW040 TN03/2212Z TX06/2218Z TEMPO 2212/2217 27012KT BECMG 2215/2217 SCT035 PROB40 TEMPO 2215/2218 9000 -SHRA FEW030 SCT035

4,000以上の空港の気象観測と天気予報(METAR報とTAF報)

利用可能な観測所は地図上に黄色い丸と赤い丸で示す。

丸の上にカーソルを重ねると観測所名を参照できる。

次にクリックすると気象観測と天気予報を参照できる。

マップの切り替え:黒色「×」印の緑ボタンをクリックして拡大、「-」印の緑ボタンをクリックして縮小、緑色の三角印をクリックして隣りの地図に切り替え


METAR-TAF: